sensor_id;sensor_type;location;lat;lon;timestamp;P1;durP1;ratioP1;P2;durP2;ratioP2
2934;SDS011;2462;51.456;7.248;2023-06-26T00:00:16;4.67;;;4.27;;
2934;SDS011;2462;51.456;7.248;2023-06-26T00:02:42;5.20;;;4.70;;
2934;SDS011;2462;51.456;7.248;2023-06-26T00:05:08;4.93;;;4.47;;
2934;SDS011;2462;51.456;7.248;2023-06-26T00:07:34;4.97;;;4.60;;
2934;SDS011;2462;51.456;7.248;2023-06-26T00:10:01;4.93;;;4.53;;
2934;SDS011;2462;51.456;7.248;2023-06-26T00:12:27;4.50;;;4.20;;
2934;SDS011;2462;51.456;7.248;2023-06-26T00:14:53;5.43;;;4.93;;
2934;SDS011;2462;51.456;7.248;2023-06-26T00:17:20;5.60;;;5.10;;
2934;SDS011;2462;51.456;7.248;2023-06-26T00:19:46;4.73;;;4.33;;
2934;SDS011;2462;51.456;7.248;2023-06-26T00:22:12;4.90;;;4.50;;
2934;SDS011;2462;51.456;7.248;2023-06-26T00:24:38;5.00;;;4.60;;
2934;SDS011;2462;51.456;7.248;2023-06-26T00:27:04;4.73;;;4.40;;
2934;SDS011;2462;51.456;7.248;2023-06-26T00:29:30;4.83;;;4.43;;
2934;SDS011;2462;51.456;7.248;2023-06-26T00:31:56;5.10;;;4.60;;
2934;SDS011;2462;51.456;7.248;2023-06-26T00:34:22;5.10;;;4.70;;
2934;SDS011;2462;51.456;7.248;2023-06-26T00:36:48;4.93;;;4.53;;
2934;SDS011;2462;51.456;7.248;2023-06-26T00:39:13;6.90;;;5.20;;
2934;SDS011;2462;51.456;7.248;2023-06-26T00:41:39;4.10;;;3.80;;
2934;SDS011;2462;51.456;7.248;2023-06-26T00:44:05;5.43;;;4.93;;
2934;SDS011;2462;51.456;7.248;2023-06-26T00:46:32;5.80;;;5.20;;
2934;SDS011;2462;51.456;7.248;2023-06-26T00:49:02;5.43;;;4.93;;
2934;SDS011;2462;51.456;7.248;2023-06-26T00:51:28;4.60;;;4.20;;
2934;SDS011;2462;51.456;7.248;2023-06-26T00:53:55;5.07;;;4.67;;
2934;SDS011;2462;51.456;7.248;2023-06-26T00:56:21;4.37;;;4.00;;
2934;SDS011;2462;51.456;7.248;2023-06-26T00:58:47;5.23;;;4.83;;
2934;SDS011;2462;51.456;7.248;2023-06-26T01:01:13;4.67;;;4.33;;
2934;SDS011;2462;51.456;7.248;2023-06-26T01:03:45;5.10;;;4.70;;
2934;SDS011;2462;51.456;7.248;2023-06-26T01:06:16;4.47;;;4.07;;
2934;SDS011;2462;51.456;7.248;2023-06-26T01:08:43;4.60;;;4.20;;
2934;SDS011;2462;51.456;7.248;2023-06-26T01:11:09;5.27;;;4.80;;
2934;SDS011;2462;51.456;7.248;2023-06-26T01:13:35;5.50;;;4.90;;
2934;SDS011;2462;51.456;7.248;2023-06-26T01:16:02;5.63;;;5.13;;
2934;SDS011;2462;51.456;7.248;2023-06-26T01:18:29;4.60;;;4.20;;
2934;SDS011;2462;51.456;7.248;2023-06-26T01:20:55;4.27;;;3.93;;
2934;SDS011;2462;51.456;7.248;2023-06-26T01:26:21;4.43;;;4.13;;
2934;SDS011;2462;51.456;7.248;2023-06-26T01:28:48;5.00;;;4.60;;
2934;SDS011;2462;51.456;7.248;2023-06-26T01:31:15;4.67;;;4.30;;
2934;SDS011;2462;51.456;7.248;2023-06-26T01:33:41;5.20;;;4.80;;
2934;SDS011;2462;51.456;7.248;2023-06-26T01:36:07;5.20;;;4.80;;
2934;SDS011;2462;51.456;7.248;2023-06-26T01:38:33;4.70;;;4.30;;
2934;SDS011;2462;51.456;7.248;2023-06-26T01:40:59;6.43;;;4.47;;
2934;SDS011;2462;51.456;7.248;2023-06-26T01:46:09;5.20;;;4.70;;
2934;SDS011;2462;51.456;7.248;2023-06-26T01:48:56;4.60;;;4.20;;
2934;SDS011;2462;51.456;7.248;2023-06-26T01:51:26;4.27;;;3.90;;
2934;SDS011;2462;51.456;7.248;2023-06-26T01:53:53;4.53;;;4.13;;
2934;SDS011;2462;51.456;7.248;2023-06-26T01:56:20;4.97;;;4.57;;
2934;SDS011;2462;51.456;7.248;2023-06-26T01:58:49;4.40;;;4.00;;
2934;SDS011;2462;51.456;7.248;2023-06-26T02:01:19;4.63;;;4.23;;
2934;SDS011;2462;51.456;7.248;2023-06-26T02:03:45;5.97;;;5.37;;
2934;SDS011;2462;51.456;7.248;2023-06-26T02:06:11;4.70;;;4.30;;
2934;SDS011;2462;51.456;7.248;2023-06-26T02:08:37;5.20;;;4.70;;
2934;SDS011;2462;51.456;7.248;2023-06-26T02:11:03;5.17;;;4.77;;
2934;SDS011;2462;51.456;7.248;2023-06-26T02:13:29;4.80;;;4.40;;
2934;SDS011;2462;51.456;7.248;2023-06-26T02:15:55;4.90;;;4.40;;
2934;SDS011;2462;51.456;7.248;2023-06-26T02:18:22;5.13;;;4.63;;
2934;SDS011;2462;51.456;7.248;2023-06-26T02:20:48;4.57;;;4.17;;
2934;SDS011;2462;51.456;7.248;2023-06-26T02:23:14;5.40;;;4.90;;
2934;SDS011;2462;51.456;7.248;2023-06-26T02:25:40;4.93;;;4.53;;
2934;SDS011;2462;51.456;7.248;2023-06-26T02:28:06;5.47;;;4.97;;
2934;SDS011;2462;51.456;7.248;2023-06-26T02:30:32;4.83;;;4.43;;
2934;SDS011;2462;51.456;7.248;2023-06-26T02:32:58;5.17;;;4.77;;
2934;SDS011;2462;51.456;7.248;2023-06-26T02:35:24;5.30;;;4.80;;
2934;SDS011;2462;51.456;7.248;2023-06-26T02:37:50;5.07;;;4.57;;
2934;SDS011;2462;51.456;7.248;2023-06-26T02:40:16;5.07;;;4.67;;
2934;SDS011;2462;51.456;7.248;2023-06-26T02:42:41;5.33;;;4.90;;
2934;SDS011;2462;51.456;7.248;2023-06-26T02:45:08;4.57;;;4.17;;
2934;SDS011;2462;51.456;7.248;2023-06-26T02:47:34;5.30;;;4.90;;
2934;SDS011;2462;51.456;7.248;2023-06-26T02:50:01;4.93;;;4.53;;
2934;SDS011;2462;51.456;7.248;2023-06-26T02:52:28;5.53;;;5.03;;
2934;SDS011;2462;51.456;7.248;2023-06-26T02:54:54;5.00;;;4.50;;
2934;SDS011;2462;51.456;7.248;2023-06-26T02:57:20;5.13;;;4.63;;
2934;SDS011;2462;51.456;7.248;2023-06-26T02:59:46;4.80;;;4.40;;
2934;SDS011;2462;51.456;7.248;2023-06-26T03:02:12;5.10;;;4.60;;
2934;SDS011;2462;51.456;7.248;2023-06-26T03:04:38;4.87;;;4.47;;
2934;SDS011;2462;51.456;7.248;2023-06-26T03:07:04;5.97;;;5.27;;
2934;SDS011;2462;51.456;7.248;2023-06-26T03:09:30;6.83;;;4.93;;
2934;SDS011;2462;51.456;7.248;2023-06-26T03:11:56;5.23;;;4.73;;
2934;SDS011;2462;51.456;7.248;2023-06-26T03:14:21;5.77;;;5.13;;
2934;SDS011;2462;51.456;7.248;2023-06-26T03:16:47;4.67;;;4.27;;
2934;SDS011;2462;51.456;7.248;2023-06-26T03:19:16;4.67;;;4.27;;
2934;SDS011;2462;51.456;7.248;2023-06-26T03:21:42;4.77;;;4.37;;
2934;SDS011;2462;51.456;7.248;2023-06-26T03:24:07;5.23;;;4.73;;
2934;SDS011;2462;51.456;7.248;2023-06-26T03:26:33;5.30;;;4.90;;
2934;SDS011;2462;51.456;7.248;2023-06-26T03:28:59;4.80;;;4.30;;
2934;SDS011;2462;51.456;7.248;2023-06-26T03:31:25;5.37;;;4.87;;
2934;SDS011;2462;51.456;7.248;2023-06-26T03:33:51;5.27;;;4.77;;
2934;SDS011;2462;51.456;7.248;2023-06-26T03:36:17;4.47;;;4.07;;
2934;SDS011;2462;51.456;7.248;2023-06-26T03:38:43;5.83;;;4.73;;
2934;SDS011;2462;51.456;7.248;2023-06-26T03:41:09;4.87;;;4.47;;
2934;SDS011;2462;51.456;7.248;2023-06-26T03:43:35;5.20;;;4.27;;
2934;SDS011;2462;51.456;7.248;2023-06-26T03:46:01;4.47;;;4.07;;
2934;SDS011;2462;51.456;7.248;2023-06-26T03:48:27;4.70;;;4.30;;
2934;SDS011;2462;51.456;7.248;2023-06-26T03:50:53;5.33;;;4.83;;
2934;SDS011;2462;51.456;7.248;2023-06-26T03:53:19;5.53;;;5.03;;
2934;SDS011;2462;51.456;7.248;2023-06-26T03:55:45;5.30;;;4.60;;
2934;SDS011;2462;51.456;7.248;2023-06-26T03:58:11;5.03;;;4.63;;
2934;SDS011;2462;51.456;7.248;2023-06-26T04:00:37;4.20;;;3.90;;
2934;SDS011;2462;51.456;7.248;2023-06-26T04:03:03;5.40;;;4.90;;
2934;SDS011;2462;51.456;7.248;2023-06-26T04:05:29;4.87;;;4.50;;
2934;SDS011;2462;51.456;7.248;2023-06-26T04:07:55;5.60;;;4.60;;
2934;SDS011;2462;51.456;7.248;2023-06-26T04:10:21;5.53;;;5.03;;
2934;SDS011;2462;51.456;7.248;2023-06-26T04:12:47;4.97;;;4.57;;
2934;SDS011;2462;51.456;7.248;2023-06-26T04:15:13;5.23;;;4.73;;
2934;SDS011;2462;51.456;7.248;2023-06-26T04:17:39;6.17;;;5.13;;
2934;SDS011;2462;51.456;7.248;2023-06-26T04:20:05;5.87;;;5.23;;
2934;SDS011;2462;51.456;7.248;2023-06-26T04:22:32;5.00;;;4.60;;
2934;SDS011;2462;51.456;7.248;2023-06-26T04:24:58;5.27;;;4.87;;
2934;SDS011;2462;51.456;7.248;2023-06-26T04:27:24;5.23;;;4.73;;
2934;SDS011;2462;51.456;7.248;2023-06-26T04:29:49;5.27;;;4.87;;
2934;SDS011;2462;51.456;7.248;2023-06-26T04:32:15;6.47;;;4.40;;
2934;SDS011;2462;51.456;7.248;2023-06-26T04:34:41;5.00;;;4.40;;
2934;SDS011;2462;51.456;7.248;2023-06-26T04:37:10;5.30;;;4.90;;
2934;SDS011;2462;51.456;7.248;2023-06-26T04:39:36;5.27;;;4.77;;
2934;SDS011;2462;51.456;7.248;2023-06-26T04:42:05;5.47;;;4.80;;
2934;SDS011;2462;51.456;7.248;2023-06-26T04:44:32;5.03;;;4.63;;
2934;SDS011;2462;51.456;7.248;2023-06-26T04:46:58;5.17;;;4.67;;
2934;SDS011;2462;51.456;7.248;2023-06-26T04:49:24;5.37;;;4.87;;
2934;SDS011;2462;51.456;7.248;2023-06-26T04:51:52;4.83;;;3.97;;
2934;SDS011;2462;51.456;7.248;2023-06-26T04:54:18;6.10;;;5.43;;
2934;SDS011;2462;51.456;7.248;2023-06-26T04:56:44;5.60;;;4.97;;
2934;SDS011;2462;51.456;7.248;2023-06-26T04:59:12;6.07;;;5.47;;
2934;SDS011;2462;51.456;7.248;2023-06-26T05:01:38;6.83;;;5.10;;
2934;SDS011;2462;51.456;7.248;2023-06-26T05:04:04;7.83;;;5.77;;
2934;SDS011;2462;51.456;7.248;2023-06-26T05:06:30;8.17;;;5.80;;
2934;SDS011;2462;51.456;7.248;2023-06-26T05:08:56;8.50;;;5.20;;
2934;SDS011;2462;51.456;7.248;2023-06-26T05:11:22;6.43;;;5.90;;
2934;SDS011;2462;51.456;7.248;2023-06-26T05:13:49;7.30;;;6.67;;
2934;SDS011;2462;51.456;7.248;2023-06-26T05:16:15;6.40;;;5.10;;
2934;SDS011;2462;51.456;7.248;2023-06-26T05:18:41;6.77;;;6.10;;
2934;SDS011;2462;51.456;7.248;2023-06-26T05:21:07;6.70;;;5.53;;
2934;SDS011;2462;51.456;7.248;2023-06-26T05:23:33;10.27;;;5.47;;
2934;SDS011;2462;51.456;7.248;2023-06-26T05:26:00;7.40;;;6.03;;
2934;SDS011;2462;51.456;7.248;2023-06-26T05:28:26;5.93;;;5.20;;
2934;SDS011;2462;51.456;7.248;2023-06-26T05:30:52;7.37;;;6.67;;
2934;SDS011;2462;51.456;7.248;2023-06-26T05:33:19;5.90;;;5.40;;
2934;SDS011;2462;51.456;7.248;2023-06-26T05:35:46;8.60;;;7.20;;
2934;SDS011;2462;51.456;7.248;2023-06-26T05:38:13;9.60;;;7.00;;
2934;SDS011;2462;51.456;7.248;2023-06-26T05:40:39;6.80;;;6.10;;
2934;SDS011;2462;51.456;7.248;2023-06-26T05:43:05;6.60;;;6.00;;
2934;SDS011;2462;51.456;7.248;2023-06-26T05:45:32;7.70;;;6.90;;
2934;SDS011;2462;51.456;7.248;2023-06-26T05:47:58;6.90;;;6.23;;
2934;SDS011;2462;51.456;7.248;2023-06-26T05:50:24;8.23;;;7.43;;
2934;SDS011;2462;51.456;7.248;2023-06-26T05:52:51;7.13;;;6.40;;
2934;SDS011;2462;51.456;7.248;2023-06-26T05:55:17;8.20;;;7.10;;
2934;SDS011;2462;51.456;7.248;2023-06-26T05:57:43;8.90;;;7.67;;
2934;SDS011;2462;51.456;7.248;2023-06-26T06:00:11;12.47;;;9.40;;
2934;SDS011;2462;51.456;7.248;2023-06-26T06:02:37;7.97;;;7.00;;
2934;SDS011;2462;51.456;7.248;2023-06-26T06:05:03;6.30;;;5.70;;
2934;SDS011;2462;51.456;7.248;2023-06-26T06:07:31;10.23;;;6.20;;
2934;SDS011;2462;51.456;7.248;2023-06-26T06:09:57;10.00;;;7.30;;
2934;SDS011;2462;51.456;7.248;2023-06-26T06:12:23;7.10;;;6.27;;
2934;SDS011;2462;51.456;7.248;2023-06-26T06:14:49;14.83;;;8.17;;
2934;SDS011;2462;51.456;7.248;2023-06-26T06:17:15;8.20;;;6.20;;
2934;SDS011;2462;51.456;7.248;2023-06-26T06:19:41;7.37;;;5.90;;
2934;SDS011;2462;51.456;7.248;2023-06-26T06:22:07;7.80;;;5.70;;
2934;SDS011;2462;51.456;7.248;2023-06-26T06:24:32;6.43;;;5.47;;
2934;SDS011;2462;51.456;7.248;2023-06-26T06:26:58;6.83;;;5.73;;
2934;SDS011;2462;51.456;7.248;2023-06-26T06:29:24;11.03;;;5.83;;
2934;SDS011;2462;51.456;7.248;2023-06-26T06:31:50;6.83;;;5.73;;
2934;SDS011;2462;51.456;7.248;2023-06-26T06:34:16;7.30;;;5.50;;
2934;SDS011;2462;51.456;7.248;2023-06-26T06:36:42;9.23;;;5.43;;
2934;SDS011;2462;51.456;7.248;2023-06-26T06:39:08;7.53;;;5.07;;
2934;SDS011;2462;51.456;7.248;2023-06-26T06:41:34;8.17;;;5.40;;
2934;SDS011;2462;51.456;7.248;2023-06-26T06:44:00;7.07;;;5.23;;
2934;SDS011;2462;51.456;7.248;2023-06-26T06:46:26;6.90;;;5.33;;
2934;SDS011;2462;51.456;7.248;2023-06-26T06:48:52;8.27;;;5.33;;
2934;SDS011;2462;51.456;7.248;2023-06-26T06:51:18;8.23;;;5.00;;
2934;SDS011;2462;51.456;7.248;2023-06-26T06:53:44;10.10;;;5.50;;
2934;SDS011;2462;51.456;7.248;2023-06-26T06:56:10;6.20;;;5.30;;
2934;SDS011;2462;51.456;7.248;2023-06-26T06:58:36;10.30;;;5.27;;
2934;SDS011;2462;51.456;7.248;2023-06-26T07:01:02;7.93;;;5.40;;
2934;SDS011;2462;51.456;7.248;2023-06-26T07:03:29;8.70;;;5.10;;
2934;SDS011;2462;51.456;7.248;2023-06-26T07:05:55;7.27;;;4.80;;
2934;SDS011;2462;51.456;7.248;2023-06-26T07:08:21;9.30;;;5.53;;
2934;SDS011;2462;51.456;7.248;2023-06-26T07:10:47;10.93;;;5.20;;
2934;SDS011;2462;51.456;7.248;2023-06-26T07:13:13;8.50;;;5.50;;
2934;SDS011;2462;51.456;7.248;2023-06-26T07:15:39;7.23;;;5.63;;
2934;SDS011;2462;51.456;7.248;2023-06-26T07:18:05;7.80;;;5.20;;
2934;SDS011;2462;51.456;7.248;2023-06-26T07:20:31;6.10;;;4.50;;
2934;SDS011;2462;51.456;7.248;2023-06-26T07:22:57;10.07;;;5.20;;
2934;SDS011;2462;51.456;7.248;2023-06-26T07:25:23;8.30;;;5.07;;
2934;SDS011;2462;51.456;7.248;2023-06-26T07:27:49;6.90;;;5.00;;
2934;SDS011;2462;51.456;7.248;2023-06-26T07:30:15;9.17;;;6.13;;
2934;SDS011;2462;51.456;7.248;2023-06-26T07:32:41;8.93;;;5.50;;
2934;SDS011;2462;51.456;7.248;2023-06-26T07:35:07;11.03;;;6.30;;
2934;SDS011;2462;51.456;7.248;2023-06-26T07:37:33;11.20;;;5.90;;
2934;SDS011;2462;51.456;7.248;2023-06-26T07:39:59;14.47;;;6.60;;
2934;SDS011;2462;51.456;7.248;2023-06-26T07:42:25;11.02;;;6.40;;
2934;SDS011;2462;51.456;7.248;2023-06-26T07:44:51;7.60;;;5.30;;
2934;SDS011;2462;51.456;7.248;2023-06-26T07:47:17;10.63;;;5.87;;
2934;SDS011;2462;51.456;7.248;2023-06-26T07:49:43;10.93;;;6.90;;
2934;SDS011;2462;51.456;7.248;2023-06-26T07:52:09;11.17;;;5.87;;
2934;SDS011;2462;51.456;7.248;2023-06-26T07:54:36;5.90;;;5.17;;
2934;SDS011;2462;51.456;7.248;2023-06-26T07:57:03;12.93;;;5.00;;
2934;SDS011;2462;51.456;7.248;2023-06-26T07:59:32;9.40;;;6.10;;
2934;SDS011;2462;51.456;7.248;2023-06-26T08:01:58;11.53;;;5.60;;
2934;SDS011;2462;51.456;7.248;2023-06-26T08:04:25;11.37;;;6.17;;
2934;SDS011;2462;51.456;7.248;2023-06-26T08:06:52;7.53;;;5.57;;
2934;SDS011;2462;51.456;7.248;2023-06-26T08:09:18;8.83;;;5.90;;
2934;SDS011;2462;51.456;7.248;2023-06-26T08:11:45;10.47;;;6.37;;
2934;SDS011;2462;51.456;7.248;2023-06-26T08:14:11;10.47;;;6.20;;
2934;SDS011;2462;51.456;7.248;2023-06-26T08:16:40;7.83;;;5.83;;
2934;SDS011;2462;51.456;7.248;2023-06-26T08:19:06;9.30;;;6.70;;
2934;SDS011;2462;51.456;7.248;2023-06-26T08:21:32;13.30;;;6.13;;
2934;SDS011;2462;51.456;7.248;2023-06-26T08:23:58;8.70;;;5.70;;
2934;SDS011;2462;51.456;7.248;2023-06-26T08:26:24;14.63;;;6.53;;
2934;SDS011;2462;51.456;7.248;2023-06-26T08:28:50;13.00;;;6.93;;
2934;SDS011;2462;51.456;7.248;2023-06-26T08:31:16;9.23;;;6.00;;
2934;SDS011;2462;51.456;7.248;2023-06-26T08:33:42;10.73;;;6.40;;
2934;SDS011;2462;51.456;7.248;2023-06-26T08:36:08;10.33;;;6.20;;
2934;SDS011;2462;51.456;7.248;2023-06-26T08:38:34;9.87;;;6.17;;
2934;SDS011;2462;51.456;7.248;2023-06-26T08:41:00;9.40;;;6.57;;
2934;SDS011;2462;51.456;7.248;2023-06-26T08:43:26;11.07;;;6.53;;
2934;SDS011;2462;51.456;7.248;2023-06-26T08:45:53;12.07;;;7.70;;
2934;SDS011;2462;51.456;7.248;2023-06-26T08:48:20;11.00;;;7.53;;
2934;SDS011;2462;51.456;7.248;2023-06-26T08:50:48;15.97;;;7.50;;
2934;SDS011;2462;51.456;7.248;2023-06-26T08:53:23;11.90;;;8.23;;
2934;SDS011;2462;51.456;7.248;2023-06-26T08:55:52;10.73;;;8.60;;
2934;SDS011;2462;51.456;7.248;2023-06-26T08:58:18;11.33;;;8.67;;
2934;SDS011;2462;51.456;7.248;2023-06-26T09:00:44;11.07;;;9.00;;
2934;SDS011;2462;51.456;7.248;2023-06-26T09:03:10;10.13;;;7.00;;
2934;SDS011;2462;51.456;7.248;2023-06-26T09:05:38;16.17;;;7.30;;
2934;SDS011;2462;51.456;7.248;2023-06-26T09:08:04;14.63;;;7.33;;
2934;SDS011;2462;51.456;7.248;2023-06-26T09:10:30;10.57;;;6.97;;
2934;SDS011;2462;51.456;7.248;2023-06-26T09:12:56;13.07;;;6.73;;
2934;SDS011;2462;51.456;7.248;2023-06-26T09:15:23;9.83;;;6.30;;
2934;SDS011;2462;51.456;7.248;2023-06-26T09:17:49;14.13;;;7.97;;
2934;SDS011;2462;51.456;7.248;2023-06-26T09:20:15;18.17;;;8.40;;
2934;SDS011;2462;51.456;7.248;2023-06-26T09:22:42;8.43;;;6.60;;
2934;SDS011;2462;51.456;7.248;2023-06-26T09:25:08;9.00;;;6.23;;
2934;SDS011;2462;51.456;7.248;2023-06-26T09:27:34;9.60;;;5.83;;
2934;SDS011;2462;51.456;7.248;2023-06-26T09:30:04;13.43;;;5.83;;
2934;SDS011;2462;51.456;7.248;2023-06-26T09:32:34;6.70;;;5.80;;
2934;SDS011;2462;51.456;7.248;2023-06-26T09:35:01;8.07;;;6.90;;
2934;SDS011;2462;51.456;7.248;2023-06-26T09:37:28;11.37;;;6.90;;
2934;SDS011;2462;51.456;7.248;2023-06-26T09:39:53;7.70;;;5.53;;
2934;SDS011;2462;51.456;7.248;2023-06-26T09:42:20;12.63;;;5.80;;
2934;SDS011;2462;51.456;7.248;2023-06-26T09:44:46;9.60;;;5.17;;
2934;SDS011;2462;51.456;7.248;2023-06-26T09:47:15;11.00;;;5.30;;
2934;SDS011;2462;51.456;7.248;2023-06-26T09:49:42;10.27;;;5.20;;
2934;SDS011;2462;51.456;7.248;2023-06-26T09:52:08;10.25;;;5.38;;
2934;SDS011;2462;51.456;7.248;2023-06-26T09:54:34;10.27;;;5.50;;
2934;SDS011;2462;51.456;7.248;2023-06-26T09:57:08;10.20;;;5.33;;
2934;SDS011;2462;51.456;7.248;2023-06-26T09:59:34;8.13;;;5.00;;
2934;SDS011;2462;51.456;7.248;2023-06-26T10:02:00;10.63;;;4.90;;
2934;SDS011;2462;51.456;7.248;2023-06-26T10:04:26;9.00;;;4.70;;
2934;SDS011;2462;51.456;7.248;2023-06-26T10:06:54;9.63;;;5.70;;
2934;SDS011;2462;51.456;7.248;2023-06-26T10:09:21;5.53;;;4.83;;
2934;SDS011;2462;51.456;7.248;2023-06-26T10:11:56;8.87;;;4.60;;
2934;SDS011;2462;51.456;7.248;2023-06-26T10:14:24;6.80;;;4.63;;
2934;SDS011;2462;51.456;7.248;2023-06-26T10:16:51;9.07;;;5.60;;
2934;SDS011;2462;51.456;7.248;2023-06-26T10:19:19;13.40;;;6.77;;
2934;SDS011;2462;51.456;7.248;2023-06-26T10:21:53;13.10;;;5.33;;
2934;SDS011;2462;51.456;7.248;2023-06-26T10:24:19;10.27;;;5.57;;
2934;SDS011;2462;51.456;7.248;2023-06-26T10:26:46;9.33;;;5.50;;
2934;SDS011;2462;51.456;7.248;2023-06-26T10:29:14;10.97;;;4.90;;
2934;SDS011;2462;51.456;7.248;2023-06-26T10:31:42;11.50;;;4.60;;
2934;SDS011;2462;51.456;7.248;2023-06-26T10:34:10;8.93;;;4.30;;
2934;SDS011;2462;51.456;7.248;2023-06-26T10:36:36;10.97;;;4.40;;
2934;SDS011;2462;51.456;7.248;2023-06-26T10:39:05;7.13;;;3.47;;
2934;SDS011;2462;51.456;7.248;2023-06-26T10:41:38;5.10;;;3.27;;
2934;SDS011;2462;51.456;7.248;2023-06-26T10:49:35;12.57;;;4.40;;
2934;SDS011;2462;51.456;7.248;2023-06-26T10:52:01;4.73;;;4.07;;
2934;SDS011;2462;51.456;7.248;2023-06-26T10:54:34;7.80;;;4.00;;
2934;SDS011;2462;51.456;7.248;2023-06-26T10:57:01;11.03;;;4.07;;
2934;SDS011;2462;51.456;7.248;2023-06-26T10:59:28;8.43;;;4.60;;
2934;SDS011;2462;51.456;7.248;2023-06-26T11:01:58;6.80;;;3.60;;
2934;SDS011;2462;51.456;7.248;2023-06-26T11:07:18;7.30;;;3.73;;
2934;SDS011;2462;51.456;7.248;2023-06-26T11:12:41;6.07;;;3.47;;
2934;SDS011;2462;51.456;7.248;2023-06-26T11:15:18;6.00;;;3.37;;
2934;SDS011;2462;51.456;7.248;2023-06-26T11:17:44;6.90;;;3.83;;
2934;SDS011;2462;51.456;7.248;2023-06-26T11:20:11;6.43;;;3.43;;
2934;SDS011;2462;51.456;7.248;2023-06-26T11:22:38;3.43;;;2.93;;
2934;SDS011;2462;51.456;7.248;2023-06-26T11:25:05;8.63;;;3.10;;
2934;SDS011;2462;51.456;7.248;2023-06-26T11:27:32;8.23;;;3.53;;
2934;SDS011;2462;51.456;7.248;2023-06-26T11:29:58;6.00;;;3.83;;
2934;SDS011;2462;51.456;7.248;2023-06-26T11:32:26;6.40;;;3.87;;
2934;SDS011;2462;51.456;7.248;2023-06-26T11:34:53;7.53;;;3.80;;
2934;SDS011;2462;51.456;7.248;2023-06-26T11:37:20;9.77;;;3.63;;
2934;SDS011;2462;51.456;7.248;2023-06-26T11:39:46;6.17;;;3.50;;
2934;SDS011;2462;51.456;7.248;2023-06-26T11:42:12;20.20;;;4.17;;
2934;SDS011;2462;51.456;7.248;2023-06-26T11:44:39;4.47;;;3.40;;
2934;SDS011;2462;51.456;7.248;2023-06-26T11:47:06;3.33;;;3.03;;
2934;SDS011;2462;51.456;7.248;2023-06-26T11:49:32;4.27;;;2.70;;
2934;SDS011;2462;51.456;7.248;2023-06-26T11:51:58;4.77;;;2.73;;
2934;SDS011;2462;51.456;7.248;2023-06-26T11:54:27;8.70;;;3.00;;
2934;SDS011;2462;51.456;7.248;2023-06-26T11:56:56;3.20;;;2.27;;
2934;SDS011;2462;51.456;7.248;2023-06-26T11:59:22;4.60;;;1.97;;
2934;SDS011;2462;51.456;7.248;2023-06-26T12:01:49;8.13;;;1.60;;
2934;SDS011;2462;51.456;7.248;2023-06-26T12:04:17;3.60;;;2.27;;
2934;SDS011;2462;51.456;7.248;2023-06-26T12:06:47;4.60;;;1.93;;
2934;SDS011;2462;51.456;7.248;2023-06-26T12:09:14;2.80;;;2.10;;
2934;SDS011;2462;51.456;7.248;2023-06-26T12:11:41;6.07;;;2.10;;
2934;SDS011;2462;51.456;7.248;2023-06-26T12:14:08;2.80;;;2.10;;
2934;SDS011;2462;51.456;7.248;2023-06-26T12:16:34;5.50;;;2.30;;
2934;SDS011;2462;51.456;7.248;2023-06-26T12:19:01;8.07;;;2.10;;
2934;SDS011;2462;51.456;7.248;2023-06-26T12:21:48;3.40;;;2.37;;
2934;SDS011;2462;51.456;7.248;2023-06-26T12:24:17;4.80;;;2.00;;
2934;SDS011;2462;51.456;7.248;2023-06-26T12:26:44;3.23;;;1.90;;
2934;SDS011;2462;51.456;7.248;2023-06-26T12:29:13;6.90;;;2.63;;
2934;SDS011;2462;51.456;7.248;2023-06-26T12:31:43;3.60;;;1.70;;
2934;SDS011;2462;51.456;7.248;2023-06-26T12:34:10;3.50;;;2.30;;
2934;SDS011;2462;51.456;7.248;2023-06-26T12:36:41;5.17;;;2.00;;
2934;SDS011;2462;51.456;7.248;2023-06-26T12:39:09;2.13;;;1.33;;
2934;SDS011;2462;51.456;7.248;2023-06-26T12:41:43;5.50;;;1.57;;
2934;SDS011;2462;51.456;7.248;2023-06-26T12:44:19;3.40;;;1.67;;
2934;SDS011;2462;51.456;7.248;2023-06-26T12:46:53;3.73;;;1.50;;
2934;SDS011;2462;51.456;7.248;2023-06-26T12:49:19;3.67;;;1.60;;
2934;SDS011;2462;51.456;7.248;2023-06-26T12:51:46;4.13;;;1.77;;
2934;SDS011;2462;51.456;7.248;2023-06-26T12:54:13;5.30;;;1.67;;
2934;SDS011;2462;51.456;7.248;2023-06-26T12:56:39;5.83;;;1.63;;
2934;SDS011;2462;51.456;7.248;2023-06-26T12:59:04;1.73;;;1.30;;
2934;SDS011;2462;51.456;7.248;2023-06-26T13:01:30;2.63;;;1.70;;
2934;SDS011;2462;51.456;7.248;2023-06-26T13:03:57;4.70;;;1.43;;
2934;SDS011;2462;51.456;7.248;2023-06-26T13:06:23;6.37;;;1.80;;
2934;SDS011;2462;51.456;7.248;2023-06-26T13:08:49;4.93;;;1.50;;
2934;SDS011;2462;51.456;7.248;2023-06-26T13:11:15;6.63;;;1.33;;
2934;SDS011;2462;51.456;7.248;2023-06-26T13:13:42;2.13;;;1.23;;
2934;SDS011;2462;51.456;7.248;2023-06-26T13:16:08;4.47;;;1.17;;
2934;SDS011;2462;51.456;7.248;2023-06-26T13:18:34;3.20;;;1.20;;
2934;SDS011;2462;51.456;7.248;2023-06-26T13:21:00;4.97;;;1.50;;
2934;SDS011;2462;51.456;7.248;2023-06-26T13:23:26;5.33;;;1.40;;
2934;SDS011;2462;51.456;7.248;2023-06-26T13:25:53;3.40;;;1.10;;
2934;SDS011;2462;51.456;7.248;2023-06-26T13:28:19;4.17;;;1.70;;
2934;SDS011;2462;51.456;7.248;2023-06-26T13:30:45;9.17;;;1.50;;
2934;SDS011;2462;51.456;7.248;2023-06-26T13:33:11;3.03;;;1.20;;
2934;SDS011;2462;51.456;7.248;2023-06-26T13:35:37;2.50;;;1.30;;
2934;SDS011;2462;51.456;7.248;2023-06-26T13:38:03;6.83;;;1.60;;
2934;SDS011;2462;51.456;7.248;2023-06-26T13:40:29;4.80;;;1.73;;
2934;SDS011;2462;51.456;7.248;2023-06-26T13:42:55;2.87;;;1.30;;
2934;SDS011;2462;51.456;7.248;2023-06-26T13:45:21;4.23;;;1.33;;
2934;SDS011;2462;51.456;7.248;2023-06-26T13:47:46;2.93;;;1.13;;
2934;SDS011;2462;51.456;7.248;2023-06-26T13:50:12;6.17;;;1.10;;
2934;SDS011;2462;51.456;7.248;2023-06-26T13:52:38;2.53;;;1.17;;
2934;SDS011;2462;51.456;7.248;2023-06-26T13:55:04;2.80;;;0.83;;
2934;SDS011;2462;51.456;7.248;2023-06-26T13:57:31;2.50;;;1.00;;
2934;SDS011;2462;51.456;7.248;2023-06-26T13:59:57;5.43;;;1.50;;
2934;SDS011;2462;51.456;7.248;2023-06-26T14:02:23;1.50;;;1.07;;
2934;SDS011;2462;51.456;7.248;2023-06-26T14:04:49;10.37;;;1.50;;
2934;SDS011;2462;51.456;7.248;2023-06-26T14:07:15;2.70;;;1.27;;
2934;SDS011;2462;51.456;7.248;2023-06-26T14:09:40;2.53;;;1.40;;
2934;SDS011;2462;51.456;7.248;2023-06-26T14:12:07;2.30;;;1.47;;
2934;SDS011;2462;51.456;7.248;2023-06-26T14:14:33;4.47;;;1.20;;
2934;SDS011;2462;51.456;7.248;2023-06-26T14:16:59;3.87;;;1.30;;
2934;SDS011;2462;51.456;7.248;2023-06-26T14:19:25;1.70;;;1.10;;
2934;SDS011;2462;51.456;7.248;2023-06-26T14:21:51;2.17;;;1.20;;
2934;SDS011;2462;51.456;7.248;2023-06-26T14:24:17;2.10;;;1.13;;
2934;SDS011;2462;51.456;7.248;2023-06-26T14:26:43;5.47;;;1.60;;
2934;SDS011;2462;51.456;7.248;2023-06-26T14:29:09;2.27;;;1.13;;
2934;SDS011;2462;51.456;7.248;2023-06-26T14:31:35;3.13;;;1.30;;
2934;SDS011;2462;51.456;7.248;2023-06-26T14:34:01;5.57;;;1.33;;
2934;SDS011;2462;51.456;7.248;2023-06-26T14:36:28;2.33;;;1.40;;
2934;SDS011;2462;51.456;7.248;2023-06-26T14:38:56;5.13;;;1.67;;
2934;SDS011;2462;51.456;7.248;2023-06-26T14:41:22;4.23;;;1.40;;
2934;SDS011;2462;51.456;7.248;2023-06-26T14:43:48;3.53;;;1.20;;
2934;SDS011;2462;51.456;7.248;2023-06-26T14:46:14;4.07;;;1.30;;
2934;SDS011;2462;51.456;7.248;2023-06-26T14:48:39;4.63;;;1.53;;
2934;SDS011;2462;51.456;7.248;2023-06-26T14:51:05;3.47;;;1.23;;
2934;SDS011;2462;51.456;7.248;2023-06-26T14:53:31;4.00;;;1.30;;
2934;SDS011;2462;51.456;7.248;2023-06-26T14:55:57;1.50;;;1.13;;
2934;SDS011;2462;51.456;7.248;2023-06-26T14:58:23;3.20;;;1.40;;
2934;SDS011;2462;51.456;7.248;2023-06-26T15:00:49;2.17;;;1.27;;
2934;SDS011;2462;51.456;7.248;2023-06-26T15:03:15;4.17;;;1.10;;
2934;SDS011;2462;51.456;7.248;2023-06-26T15:05:41;2.07;;;1.53;;
2934;SDS011;2462;51.456;7.248;2023-06-26T15:08:07;3.93;;;1.17;;
2934;SDS011;2462;51.456;7.248;2023-06-26T15:10:34;2.80;;;0.83;;
2934;SDS011;2462;51.456;7.248;2023-06-26T15:13:00;2.40;;;1.07;;
2934;SDS011;2462;51.456;7.248;2023-06-26T15:15:26;3.40;;;1.17;;
2934;SDS011;2462;51.456;7.248;2023-06-26T15:17:52;1.83;;;1.10;;
2934;SDS011;2462;51.456;7.248;2023-06-26T15:20:18;2.27;;;1.67;;
2934;SDS011;2462;51.456;7.248;2023-06-26T15:22:44;4.93;;;1.30;;
2934;SDS011;2462;51.456;7.248;2023-06-26T15:25:10;4.60;;;1.10;;